Time;durP1;ratioP1;P1;durP2;ratioP2;P2;SDS_P1;SDS_P2;PMS_P1;PMS_P2;Temp;Humidity;BMP_temperature;BMP_pressure;BME280_temperature;BME280_humidity;BME280_pressure;Samples;Min_cycle;Max_cycle;Signal;HPM_P1;HPM_P2
2023/12/31 00:02:24;;;;;;;;;;;;;;;7.69;64.49;100718.75;5466339;32;35373;-69
2023/12/31 00:05:29;;;;;;;;;;;;;;;7.65;64.38;100716.22;5462184;32;34864;-70
2023/12/31 00:08:31;;;;;;;;;;;;;;;7.73;64.18;100701.22;5462491;32;34865;-72
2023/12/31 00:11:33;;;;;;;;;;;;;;;7.79;63.97;100699.34;5465274;32;35420;-69
2023/12/31 00:14:37;;;;;;;;;;;;;;;7.47;65.24;100702.69;5447256;32;34950;-70
2023/12/31 00:17:39;;;;;;;;;;;;;;;6.68;67.07;100697.25;5466206;32;34943;-71
2023/12/31 00:20:41;;;;;;;;;;;;;;;7.49;65.69;100702.66;5462056;32;34500;-71
2023/12/31 00:23:44;;;;;;;;;;;;;;;7.53;64.80;100694.69;5465853;32;35222;-69
2023/12/31 00:26:47;;;;;;;;;;;;;;;7.47;64.64;100701.78;5446948;32;35010;-74
2023/12/31 00:29:49;;;;;;;;;;;;;;;6.39;68.35;100689.09;5461704;32;34701;-71
2023/12/31 00:32:51;;;;;;;;;;;;;;;6.18;69.86;100691.19;5451276;32;34409;-72
2023/12/31 00:35:53;;;;;;;;;;;;;;;6.67;68.61;100689.44;5447615;32;35501;-70
2023/12/31 00:38:56;;;;;;;;;;;;;;;7.31;66.14;100690.81;5466673;32;34523;-69
2023/12/31 00:41:58;;;;;;;;;;;;;;;7.29;66.16;100692.59;5447061;32;35697;-70
2023/12/31 00:45:00;;;;;;;;;;;;;;;7.41;65.61;100692.34;5466485;32;34138;-72
2023/12/31 00:48:02;;;;;;;;;;;;;;;7.48;65.09;100695.69;5440175;32;35229;-72
2023/12/31 00:51:04;;;;;;;;;;;;;;;6.48;68.98;100681.94;5444925;32;35028;-69
2023/12/31 00:54:07;;;;;;;;;;;;;;;6.73;67.28;100690.19;5447821;32;34949;-70
2023/12/31 00:57:09;;;;;;;;;;;;;;;6.61;68.63;100686.94;5457733;32;35244;-70
2023/12/31 01:00:11;;;;;;;;;;;;;;;6.87;67.29;100694.31;5466116;32;34573;-72
2023/12/31 01:03:13;;;;;;;;;;;;;;;6.87;67.44;100696.91;5461399;32;34166;-70
2023/12/31 01:06:15;;;;;;;;;;;;;;;6.88;67.12;100703.84;5465433;32;35383;-71
2023/12/31 01:09:17;;;;;;;;;;;;;;;6.06;70.50;100708.78;5461229;32;35063;-70
2023/12/31 01:12:19;;;;;;;;;;;;;;;6.35;69.98;100703.94;5460323;32;35083;-69
2023/12/31 01:15:22;;;;;;;;;;;;;;;5.53;72.60;100712.94;5452040;32;35455;-71
2023/12/31 01:18:24;;;;;;;;;;;;;;;6.24;70.23;100698.00;5460279;32;34242;-72
2023/12/31 01:21:26;;;;;;;;;;;;;;;6.91;68.23;100709.91;5464987;32;35518;-70
2023/12/31 01:24:29;;;;;;;;;;;;;;;6.37;68.75;100703.91;5460721;32;34788;-71
2023/12/31 01:27:31;;;;;;;;;;;;;;;6.67;67.77;100702.50;5464666;32;34852;-72
2023/12/31 01:30:34;;;;;;;;;;;;;;;6.63;68.29;100700.84;5461028;32;35568;-70
2023/12/31 01:33:36;;;;;;;;;;;;;;;6.36;69.22;100705.66;5440878;32;34851;-73
2023/12/31 01:36:38;;;;;;;;;;;;;;;6.32;69.52;100695.31;5449412;32;35092;-72
2023/12/31 01:39:41;;;;;;;;;;;;;;;6.28;69.44;100686.66;5463948;32;35036;-70
2023/12/31 01:42:44;;;;;;;;;;;;;;;6.40;70.18;100696.88;5465379;32;34791;-72
2023/12/31 01:45:46;;;;;;;;;;;;;;;6.53;68.80;100699.28;5460607;32;34999;-70
2023/12/31 01:48:48;;;;;;;;;;;;;;;6.31;70.50;100694.44;5464004;32;34627;-70
2023/12/31 01:51:50;;;;;;;;;;;;;;;6.70;69.03;100694.63;5458887;32;34604;-72
2023/12/31 01:54:52;;;;;;;;;;;;;;;6.26;70.20;100696.25;5443807;32;34804;-70
2023/12/31 01:57:55;;;;;;;;;;;;;;;5.60;72.14;100697.22;5444745;32;35507;-72
2023/12/31 02:00:57;;;;;;;;;;;;;;;5.47;74.01;100698.25;5460517;32;34801;-73
2023/12/31 02:03:59;;;;;;;;;;;;;;;5.69;74.44;100688.41;5465108;32;34173;-72
2023/12/31 02:07:01;;;;;;;;;;;;;;;6.38;70.64;100682.16;5459923;32;34977;-71
2023/12/31 02:10:04;;;;;;;;;;;;;;;6.16;71.42;100684.25;5443580;32;35113;-72
2023/12/31 02:13:06;;;;;;;;;;;;;;;6.33;70.58;100679.59;5459096;32;35924;-69
2023/12/31 02:16:15;;;;;;;;;;;;;;;6.49;69.55;100672.34;5444361;32;34943;-71
2023/12/31 02:19:17;;;;;;;;;;;;;;;6.74;68.30;100672.78;5465329;32;35524;-69
2023/12/31 02:22:19;;;;;;;;;;;;;;;6.54;68.78;100672.28;5445383;32;34855;-72
2023/12/31 02:25:26;;;;;;;;;;;;;;;6.29;69.50;100670.09;5451083;32;35583;-73
2023/12/31 02:28:29;;;;;;;;;;;;;;;6.29;69.75;100664.88;5456926;32;35043;-70
2023/12/31 02:31:33;;;;;;;;;;;;;;;6.10;70.86;100666.06;5463656;32;35440;-69
2023/12/31 02:34:35;;;;;;;;;;;;;;;6.19;70.67;100658.09;5464845;32;35139;-69
2023/12/31 02:37:37;;;;;;;;;;;;;;;6.29;69.76;100656.19;5452435;32;34229;-70
2023/12/31 02:40:39;;;;;;;;;;;;;;;6.44;69.52;100653.28;5467162;32;35487;-70
2023/12/31 02:43:41;;;;;;;;;;;;;;;6.17;70.09;100650.28;5462403;32;34771;-73
2023/12/31 02:46:44;;;;;;;;;;;;;;;6.34;68.96;100656.97;5466505;32;35508;-71
2023/12/31 02:49:46;;;;;;;;;;;;;;;5.75;69.85;100661.38;5446529;32;34345;-71
2023/12/31 02:52:50;;;;;;;;;;;;;;;5.90;69.95;100648.94;5460194;32;34743;-69
2023/12/31 02:55:52;;;;;;;;;;;;;;;5.57;70.94;100652.06;5464249;32;34737;-73
2023/12/31 02:58:54;;;;;;;;;;;;;;;5.41;72.15;100657.50;5462230;32;35015;-72
2023/12/31 03:01:56;;;;;;;;;;;;;;;5.42;72.43;100654.03;5465768;32;34898;-69
2023/12/31 03:04:58;;;;;;;;;;;;;;;4.98;73.29;100648.50;5462139;32;34181;-72
2023/12/31 03:08:00;;;;;;;;;;;;;;;4.98;73.44;100645.91;5466408;32;34855;-69
2023/12/31 03:11:03;;;;;;;;;;;;;;;5.39;72.61;100648.84;5444995;32;34933;-71
2023/12/31 03:14:06;;;;;;;;;;;;;;;5.23;71.35;100641.25;5444991;32;34912;-72
2023/12/31 03:17:08;;;;;;;;;;;;;;;5.14;73.05;100631.78;5450781;32;34729;-69
2023/12/31 03:20:10;;;;;;;;;;;;;;;5.13;72.96;100640.50;5462042;32;34883;-71
2023/12/31 03:23:14;;;;;;;;;;;;;;;5.67;71.00;100638.03;5466282;32;35622;-71
2023/12/31 03:26:16;;;;;;;;;;;;;;;4.76;73.79;100642.69;5461519;32;35715;-69
2023/12/31 03:29:18;;;;;;;;;;;;;;;5.05;73.65;100642.34;5452232;32;35924;-73
2023/12/31 03:32:21;;;;;;;;;;;;;;;4.96;73.63;100640.72;5460956;32;35284;-71
2023/12/31 03:35:23;;;;;;;;;;;;;;;5.23;72.71;100626.47;5462256;32;34897;-71
2023/12/31 03:38:25;;;;;;;;;;;;;;;4.98;72.93;100638.09;5455322;32;35188;-70
2023/12/31 03:41:27;;;;;;;;;;;;;;;5.13;73.19;100633.53;5461562;32;35579;-68
2023/12/31 03:44:29;;;;;;;;;;;;;;;4.92;74.34;100630.34;5452778;32;35924;-69
2023/12/31 03:47:32;;;;;;;;;;;;;;;4.94;73.68;100624.22;5461290;32;35220;-69
2023/12/31 03:50:34;;;;;;;;;;;;;;;5.41;71.48;100623.63;5465073;32;35847;-69
2023/12/31 03:53:36;;;;;;;;;;;;;;;5.51;71.53;100628.69;5459555;32;35116;-69
2023/12/31 03:56:38;;;;;;;;;;;;;;;4.96;72.69;100630.31;5459356;32;34939;-72
2023/12/31 03:59:40;;;;;;;;;;;;;;;5.00;72.53;100625.91;5466962;32;35258;-69
2023/12/31 04:02:43;;;;;;;;;;;;;;;5.24;71.88;100629.94;5461932;32;35119;-71
2023/12/31 04:05:45;;;;;;;;;;;;;;;5.57;70.54;100619.03;5466580;32;34455;-69
2023/12/31 04:08:48;;;;;;;;;;;;;;;4.52;75.20;100628.22;5447250;32;34528;-69
2023/12/31 04:11:50;;;;;;;;;;;;;;;4.74;73.96;100619.25;5465640;32;34416;-73
2023/12/31 04:14:52;;;;;;;;;;;;;;;4.46;75.77;100615.25;5462058;32;35512;-72
2023/12/31 04:17:55;;;;;;;;;;;;;;;5.00;73.11;100613.75;5440749;32;35007;-69
2023/12/31 04:20:58;;;;;;;;;;;;;;;5.77;69.85;100608.28;5463815;32;35926;-73
2023/12/31 04:24:00;;;;;;;;;;;;;;;6.13;67.67;100601.66;5443857;32;34725;-73
2023/12/31 04:27:02;;;;;;;;;;;;;;;5.33;71.43;100608.97;5465482;32;35471;-72
2023/12/31 04:30:05;;;;;;;;;;;;;;;4.18;76.85;100614.66;5461371;32;35079;-69
2023/12/31 04:33:07;;;;;;;;;;;;;;;3.90;79.16;100617.50;5451223;32;35202;-70
2023/12/31 04:36:09;;;;;;;;;;;;;;;4.23;78.45;100611.13;5462551;32;35205;-69
2023/12/31 04:39:11;;;;;;;;;;;;;;;4.69;77.36;100610.63;5464990;32;35314;-72
2023/12/31 04:42:13;;;;;;;;;;;;;;;4.74;74.21;100606.25;5465965;32;33290;-73
2023/12/31 04:45:15;;;;;;;;;;;;;;;5.16;74.03;100604.84;5461383;32;34892;-70
2023/12/31 04:48:18;;;;;;;;;;;;;;;5.22;73.06;100609.13;5449040;32;34426;-69
2023/12/31 04:51:26;;;;;;;;;;;;;;;5.25;72.63;100603.84;5459282;32;34982;-72
2023/12/31 04:54:28;;;;;;;;;;;;;;;5.16;72.47;100617.88;5434462;32;34116;-73
2023/12/31 04:57:30;;;;;;;;;;;;;;;5.13;73.27;100612.69;5462717;32;35599;-72
2023/12/31 05:00:32;;;;;;;;;;;;;;;4.60;74.46;100616.81;5461802;32;35034;-69
2023/12/31 05:03:34;;;;;;;;;;;;;;;4.52;75.02;100620.41;5466330;32;35662;-71
2023/12/31 05:06:37;;;;;;;;;;;;;;;4.68;75.28;100613.25;5460322;32;34839;-72
2023/12/31 05:09:39;;;;;;;;;;;;;;;5.02;72.88;100618.91;5466021;32;34853;-70
2023/12/31 05:12:41;;;;;;;;;;;;;;;4.94;73.07;100608.59;5460755;32;35200;-69
2023/12/31 05:15:43;;;;;;;;;;;;;;;4.89;72.95;100599.97;5463289;32;34100;-71
2023/12/31 05:18:52;;;;;;;;;;;;;;;5.31;70.89;100611.59;5463705;32;36304;-71
2023/12/31 05:21:55;;;;;;;;;;;;;;;4.99;72.59;100601.59;5447126;32;34728;-72
2023/12/31 05:24:57;;;;;;;;;;;;;;;5.25;72.02;100598.66;5466470;32;34485;-70
2023/12/31 05:27:59;;;;;;;;;;;;;;;4.70;72.32;100599.37;5440317;32;34676;-73
2023/12/31 05:31:01;;;;;;;;;;;;;;;4.69;72.32;100595.00;5461337;32;35459;-69
2023/12/31 05:34:03;;;;;;;;;;;;;;;4.48;72.05;100603.94;5461021;32;35052;-70
2023/12/31 05:37:06;;;;;;;;;;;;;;;4.40;72.99;100610.97;5461351;32;34775;-69
2023/12/31 05:40:08;;;;;;;;;;;;;;;4.56;73.02;100606.44;5450667;32;34336;-72
2023/12/31 05:43:11;;;;;;;;;;;;;;;4.39;72.75;100605.78;5460874;32;35812;-72
2023/12/31 05:46:13;;;;;;;;;;;;;;;4.59;72.20;100602.09;5465600;32;34766;-70
2023/12/31 05:49:15;;;;;;;;;;;;;;;4.02;74.36;100604.38;5444522;32;34760;-70
2023/12/31 05:52:18;;;;;;;;;;;;;;;4.11;73.87;100599.97;5462618;32;34641;-70
2023/12/31 05:55:20;;;;;;;;;;;;;;;3.52;76.29;100604.78;5458757;32;36091;-69
2023/12/31 05:58:22;;;;;;;;;;;;;;;4.08;75.38;100606.06;5461460;32;34388;-72
2023/12/31 06:01:24;;;;;;;;;;;;;;;3.57;76.09;100623.81;5449649;32;35667;-72
2023/12/31 06:04:27;;;;;;;;;;;;;;;3.91;76.11;100615.75;5460682;32;34718;-72
2023/12/31 06:07:29;;;;;;;;;;;;;;;3.34;77.12;100615.28;5465150;32;35023;-70
2023/12/31 06:10:31;;;;;;;;;;;;;;;3.47;78.27;100609.13;5441400;32;35060;-71
2023/12/31 06:13:33;;;;;;;;;;;;;;;4.15;74.25;100605.12;5465599;32;35061;-73
2023/12/31 06:16:36;;;;;;;;;;;;;;;3.91;74.45;100610.56;5460264;32;34488;-71
2023/12/31 06:19:39;;;;;;;;;;;;;;;3.87;75.68;100608.88;5447365;32;35240;-71
2023/12/31 06:22:42;;;;;;;;;;;;;;;3.04;77.99;100617.19;5464217;32;35002;-73
2023/12/31 06:25:44;;;;;;;;;;;;;;;2.72;80.22;100619.91;5460841;32;34834;-69
2023/12/31 06:28:46;;;;;;;;;;;;;;;2.47;79.87;100619.13;5464239;32;35336;-71
2023/12/31 06:31:48;;;;;;;;;;;;;;;2.68;81.06;100615.59;5444273;32;34318;-72
2023/12/31 06:34:51;;;;;;;;;;;;;;;2.96;78.88;100613.75;5465513;32;34402;-71
2023/12/31 06:37:53;;;;;;;;;;;;;;;2.75;78.17;100616.44;5459611;32;34196;-70
2023/12/31 06:40:55;;;;;;;;;;;;;;;2.92;78.05;100606.87;5460021;32;35094;-69
2023/12/31 06:43:57;;;;;;;;;;;;;;;2.11;80.71;100618.31;5464654;32;34600;-70
2023/12/31 06:46:59;;;;;;;;;;;;;;;3.02;78.87;100610.25;5459898;32;34658;-73
2023/12/31 06:50:02;;;;;;;;;;;;;;;2.65;79.52;100618.22;5464304;32;34572;-73
2023/12/31 06:53:04;;;;;;;;;;;;;;;2.65;79.17;100619.06;5456922;32;34650;-74
2023/12/31 06:56:08;;;;;;;;;;;;;;;3.41;77.31;100611.78;5466070;32;34955;-72
2023/12/31 06:59:10;;;;;;;;;;;;;;;4.13;75.15;100608.66;5459950;32;35203;-74
2023/12/31 07:02:13;;;;;;;;;;;;;;;3.69;72.54;100600.34;5458933;32;34737;-72
2023/12/31 07:05:15;;;;;;;;;;;;;;;3.59;75.34;100611.66;5464373;32;34876;-70
2023/12/31 07:08:18;;;;;;;;;;;;;;;4.00;73.76;100602.69;5459068;32;34918;-70
2023/12/31 07:11:20;;;;;;;;;;;;;;;3.21;75.83;100607.56;5463753;32;34399;-72
2023/12/31 07:14:24;;;;;;;;;;;;;;;3.48;76.29;100603.97;5459719;32;34702;-72
2023/12/31 07:17:26;;;;;;;;;;;;;;;3.93;73.61;100599.28;5466015;32;35256;-69
2023/12/31 07:20:31;;;;;;;;;;;;;;;4.35;72.94;100589.34;5463935;32;36298;-72
2023/12/31 07:23:33;;;;;;;;;;;;;;;3.74;72.98;100590.78;5461207;32;35466;-70
2023/12/31 07:26:35;;;;;;;;;;;;;;;4.20;72.14;100592.09;5466146;32;35827;-69
2023/12/31 07:29:38;;;;;;;;;;;;;;;3.69;74.91;100589.94;5446681;32;35003;-70
2023/12/31 07:32:40;;;;;;;;;;;;;;;4.03;74.15;100587.91;5466335;32;35267;-70
2023/12/31 07:35:42;;;;;;;;;;;;;;;4.06;73.62;100579.22;5461732;32;34878;-72
2023/12/31 07:38:44;;;;;;;;;;;;;;;4.16;72.50;100586.06;5469388;32;34768;-72
2023/12/31 07:41:46;;;;;;;;;;;;;;;4.37;72.26;100581.50;5461978;32;34407;-70
2023/12/31 07:44:49;;;;;;;;;;;;;;;4.17;73.46;100582.56;5462067;32;35079;-70
2023/12/31 07:47:53;;;;;;;;;;;;;;;4.30;73.55;100583.31;5465682;32;37789;-70
2023/12/31 07:50:55;;;;;;;;;;;;;;;4.04;74.89;100578.34;5460108;32;34611;-73
2023/12/31 07:53:57;;;;;;;;;;;;;;;4.23;74.71;100579.91;5464112;32;34207;-71
2023/12/31 07:56:59;;;;;;;;;;;;;;;4.48;73.37;100579.66;5463669;32;34702;-69
2023/12/31 08:00:07;;;;;;;;;;;;;;;4.81;72.33;100576.66;5464628;32;35658;-69
2023/12/31 08:03:09;;;;;;;;;;;;;;;5.09;71.57;100573.69;5463099;32;35499;-69
2023/12/31 08:06:11;;;;;;;;;;;;;;;4.95;72.45;100578.22;5446657;32;35167;-73
2023/12/31 08:09:15;;;;;;;;;;;;;;;5.64;69.70;100572.87;5449045;32;34538;-71
2023/12/31 08:12:17;;;;;;;;;;;;;;;5.48;70.37;100569.66;5462125;32;34131;-71
2023/12/31 08:15:19;;;;;;;;;;;;;;;5.55;70.67;100567.81;5467105;32;34492;-70
2023/12/31 08:18:21;;;;;;;;;;;;;;;5.81;70.51;100564.78;5444430;32;34864;-69
2023/12/31 08:21:24;;;;;;;;;;;;;;;5.69;70.46;100571.06;5449033;32;35187;-72
2023/12/31 08:24:26;;;;;;;;;;;;;;;5.71;70.53;100567.53;5465523;32;35371;-69
2023/12/31 08:27:28;;;;;;;;;;;;;;;5.35;71.75;100568.97;5460041;32;36176;-71
2023/12/31 08:30:32;;;;;;;;;;;;;;;5.15;72.80;100561.44;5465849;32;35046;-73
2023/12/31 08:33:34;;;;;;;;;;;;;;;5.20;73.24;100577.00;5461619;32;34763;-73
2023/12/31 08:36:37;;;;;;;;;;;;;;;5.62;71.17;100582.47;5447713;32;35490;-74
2023/12/31 08:39:41;;;;;;;;;;;;;;;5.71;71.67;100574.50;5448361;32;35600;-73
2023/12/31 08:42:43;;;;;;;;;;;;;;;5.50;71.85;100577.44;5461841;32;35381;-72
2023/12/31 08:45:46;;;;;;;;;;;;;;;5.05;73.42;100564.19;5467482;32;35148;-69
2023/12/31 08:48:48;;;;;;;;;;;;;;;5.58;72.58;100573.81;5460991;32;34652;-71
2023/12/31 08:51:50;;;;;;;;;;;;;;;5.86;71.12;100569.03;5464243;32;34426;-72
2023/12/31 08:54:53;;;;;;;;;;;;;;;5.67;69.51;100580.66;5445341;32;35115;-73
2023/12/31 08:57:55;;;;;;;;;;;;;;;5.83;70.76;100581.25;5448693;32;34430;-70
2023/12/31 09:00:57;;;;;;;;;;;;;;;5.62;71.98;100578.12;5461005;32;34799;-69
2023/12/31 09:03:59;;;;;;;;;;;;;;;6.08;70.60;100577.38;5462001;32;34072;-72
2023/12/31 09:07:02;;;;;;;;;;;;;;;6.55;69.15;100580.00;5465878;32;34907;-73
2023/12/31 09:10:04;;;;;;;;;;;;;;;6.56;70.04;100576.47;5461348;32;34256;-69
2023/12/31 09:13:06;;;;;;;;;;;;;;;7.15;67.21;100574.38;5466173;32;34291;-71
2023/12/31 09:16:08;;;;;;;;;;;;;;;6.44;69.70;100574.97;5461303;32;34906;-71
2023/12/31 09:19:11;;;;;;;;;;;;;;;6.61;69.72;100574.66;5466394;32;34870;-74
2023/12/31 09:22:13;;;;;;;;;;;;;;;6.40;69.67;100579.41;5461396;32;35275;-72
2023/12/31 09:25:15;;;;;;;;;;;;;;;5.84;72.67;100564.72;5462620;32;35166;-73
2023/12/31 09:28:17;;;;;;;;;;;;;;;5.83;73.44;100558.63;5465530;32;34249;-72
2023/12/31 09:31:24;;;;;;;;;;;;;;;6.40;72.89;100562.87;5461218;32;34942;-73
2023/12/31 09:34:27;;;;;;;;;;;;;;;6.05;73.74;100563.50;5465713;32;35054;-73
2023/12/31 09:37:29;;;;;;;;;;;;;;;6.07;73.83;100554.78;5461357;32;34662;-72
2023/12/31 09:40:31;;;;;;;;;;;;;;;5.90;73.99;100552.44;5465112;32;34855;-72
2023/12/31 09:43:35;;;;;;;;;;;;;;;5.53;76.96;100551.31;5461542;32;34834;-71
2023/12/31 09:46:40;;;;;;;;;;;;;;;5.83;74.84;100545.59;5462227;32;35363;-72
2023/12/31 09:49:42;;;;;;;;;;;;;;;6.68;70.85;100540.53;5450754;32;35581;-72
2023/12/31 09:52:48;;;;;;;;;;;;;;;6.77;70.99;100542.13;5442236;32;35616;-73
2023/12/31 09:55:50;;;;;;;;;;;;;;;6.06;74.07;100534.81;5466799;32;34014;-71
2023/12/31 09:58:53;;;;;;;;;;;;;;;6.07;74.01;100518.25;5460744;32;35238;-73
2023/12/31 10:02:07;;;;;;;;;;;;;;;6.37;73.49;100513.31;5449645;32;34429;-73
2023/12/31 10:05:09;;;;;;;;;;;;;;;7.09;71.46;100511.81;5465289;32;34975;-72
2023/12/31 10:08:11;;;;;;;;;;;;;;;7.20;68.77;100509.78;5460394;32;34637;-72
2023/12/31 10:11:14;;;;;;;;;;;;;;;6.75;71.42;100502.06;5465088;32;34768;-73
2023/12/31 10:14:16;;;;;;;;;;;;;;;7.00;70.86;100495.41;5460154;32;37132;-69
2023/12/31 10:17:18;;;;;;;;;;;;;;;8.07;67.51;100490.16;5465780;32;35128;-69
2023/12/31 10:20:20;;;;;;;;;;;;;;;7.62;66.44;100486.12;5461363;32;35489;-70
2023/12/31 10:23:23;;;;;;;;;;;;;;;7.27;68.50;100487.81;5461039;32;35255;-70
2023/12/31 10:26:25;;;;;;;;;;;;;;;6.63;71.40;100500.59;5450646;32;35471;-70
2023/12/31 10:29:28;;;;;;;;;;;;;;;6.98;72.27;100480.69;5459466;32;34719;-69
2023/12/31 10:32:30;;;;;;;;;;;;;;;6.22;74.55;100472.72;5464760;32;35707;-72
2023/12/31 10:35:33;;;;;;;;;;;;;;;7.29;73.12;100447.69;5460180;32;34357;-71
2023/12/31 10:39:01;;;;;;;;;;;;;;;7.50;70.64;100446.28;5467210;32;35593;-70
2023/12/31 10:42:06;;;;;;;;;;;;;;;7.53;70.64;100430.50;5452868;32;35171;-71
2023/12/31 10:45:09;;;;;;;;;;;;;;;7.57;71.26;100426.94;5460211;32;35019;-70
2023/12/31 10:48:11;;;;;;;;;;;;;;;7.63;70.98;100425.91;5450033;32;35028;-72
2023/12/31 10:51:13;;;;;;;;;;;;;;;7.91;68.12;100414.69;5445570;32;34904;-70
2023/12/31 10:54:18;;;;;;;;;;;;;;;8.12;68.95;100416.72;5450711;32;35367;-72
2023/12/31 10:57:21;;;;;;;;;;;;;;;9.58;63.83;100408.62;5446689;32;35406;-70
2023/12/31 11:00:24;;;;;;;;;;;;;;;8.09;67.72;100407.19;5450181;32;34920;-72
2023/12/31 11:03:27;;;;;;;;;;;;;;;9.13;64.87;100413.66;5451839;32;34340;-69
2023/12/31 11:06:30;;;;;;;;;;;;;;;7.96;68.97;100404.97;5463165;32;35146;-73
2023/12/31 11:09:33;;;;;;;;;;;;;;;7.88;69.67;100394.72;5443101;32;35042;-70
2023/12/31 11:12:36;;;;;;;;;;;;;;;9.27;65.34;100392.22;5462252;32;34798;-73
2023/12/31 11:15:38;;;;;;;;;;;;;;;7.53;70.32;100388.66;5467818;32;35141;-74
2023/12/31 11:18:46;;;;;;;;;;;;;;;8.53;69.12;100380.63;5435197;32;34593;-72
2023/12/31 11:22:18;;;;;;;;;;;;;;;8.96;67.26;100382.75;5461969;32;34915;-71
2023/12/31 11:25:21;;;;;;;;;;;;;;;8.22;68.16;100376.28;5437369;32;35011;-70
2023/12/31 11:28:26;;;;;;;;;;;;;;;8.61;68.77;100365.53;5462438;32;35390;-72
2023/12/31 11:31:29;;;;;;;;;;;;;;;8.09;69.35;100367.91;5451844;32;35410;-72
2023/12/31 11:34:34;;;;;;;;;;;;;;;7.84;69.80;100346.81;5447394;32;35461;-69
2023/12/31 11:37:38;;;;;;;;;;;;;;;6.94;75.03;100353.59;5467171;32;35605;-69
2023/12/31 11:40:41;;;;;;;;;;;;;;;8.09;70.64;100336.50;5447754;32;34534;-73
2023/12/31 11:43:44;;;;;;;;;;;;;;;8.23;69.69;100336.09;5462804;32;34474;-70
2023/12/31 11:46:47;;;;;;;;;;;;;;;8.29;69.94;100320.19;5467356;32;35422;-73
2023/12/31 11:49:50;;;;;;;;;;;;;;;8.72;68.20;100326.75;5445037;32;35618;-71
2023/12/31 11:52:52;;;;;;;;;;;;;;;7.56;73.22;100323.22;5463400;32;34491;-73
2023/12/31 11:55:56;;;;;;;;;;;;;;;7.75;70.83;100326.16;5461212;32;34328;-74
2023/12/31 11:58:58;;;;;;;;;;;;;;;7.73;71.94;100314.91;5462098;32;34308;-71
2023/12/31 12:02:03;;;;;;;;;;;;;;;8.88;68.08;100319.22;5466632;32;35106;-74
2023/12/31 12:05:06;;;;;;;;;;;;;;;8.36;69.73;100318.28;5462904;32;35668;-72
2023/12/31 12:08:09;;;;;;;;;;;;;;;8.43;69.43;100303.22;5466458;32;34868;-73
2023/12/31 12:11:11;;;;;;;;;;;;;;;7.64;70.46;100309.91;5446268;32;34656;-74
2023/12/31 12:14:14;;;;;;;;;;;;;;;7.23;73.47;100298.84;5465132;32;34478;-72
2023/12/31 12:17:16;;;;;;;;;;;;;;;8.37;70.81;100299.03;5446204;32;34569;-73
2023/12/31 12:20:18;;;;;;;;;;;;;;;8.52;68.02;100282.84;5462000;32;34871;-72
2023/12/31 12:23:21;;;;;;;;;;;;;;;8.27;70.60;100282.72;5466771;32;34796;-70
2023/12/31 12:26:23;;;;;;;;;;;;;;;8.40;68.60;100278.00;5446997;32;34465;-74
2023/12/31 12:29:27;;;;;;;;;;;;;;;8.59;68.72;100260.78;5466309;32;34635;-69
2023/12/31 12:32:29;;;;;;;;;;;;;;;8.24;70.13;100261.00;5461811;32;35180;-70
2023/12/31 12:35:34;;;;;;;;;;;;;;;7.87;71.55;100244.69;5465898;32;35152;-70
2023/12/31 12:38:36;;;;;;;;;;;;;;;7.44;73.40;100258.16;5469439;32;34913;-70
2023/12/31 12:41:38;;;;;;;;;;;;;;;8.83;69.11;100253.03;5461744;32;34830;-70
2023/12/31 12:44:40;;;;;;;;;;;;;;;8.40;68.43;100241.34;5466378;32;34024;-71
2023/12/31 12:47:42;;;;;;;;;;;;;;;7.80;71.43;100240.56;5440573;32;34415;-70
2023/12/31 12:50:47;;;;;;;;;;;;;;;8.61;68.03;100234.53;5464140;32;34488;-72
2023/12/31 12:53:50;;;;;;;;;;;;;;;7.88;70.92;100227.25;5459509;32;34207;-70
2023/12/31 12:56:52;;;;;;;;;;;;;;;8.65;68.97;100223.91;5461944;32;34353;-72
2023/12/31 12:59:54;;;;;;;;;;;;;;;8.94;66.12;100220.25;5465096;32;34791;-74
2023/12/31 13:02:57;;;;;;;;;;;;;;;8.54;67.52;100215.53;5440810;32;34416;-71
2023/12/31 13:05:59;;;;;;;;;;;;;;;9.34;65.36;100199.63;5465235;32;35266;-69
2023/12/31 13:09:01;;;;;;;;;;;;;;;9.16;65.46;100188.91;5463087;32;34766;-70
2023/12/31 13:12:03;;;;;;;;;;;;;;;9.20;65.46;100184.41;5465062;32;34967;-73
2023/12/31 13:15:06;;;;;;;;;;;;;;;7.80;70.63;100184.75;5445517;32;34867;-70
2023/12/31 13:18:08;;;;;;;;;;;;;;;8.24;68.79;100183.31;5463428;32;34343;-73
2023/12/31 13:21:10;;;;;;;;;;;;;;;8.37;68.63;100179.44;5449970;32;34986;-73
2023/12/31 13:24:12;;;;;;;;;;;;;;;8.50;68.62;100172.03;5461198;32;34710;-69
2023/12/31 13:27:15;;;;;;;;;;;;;;;7.98;71.26;100160.59;5465956;32;36561;-73
2023/12/31 13:30:17;;;;;;;;;;;;;;;8.79;67.87;100144.81;5460633;32;35369;-71
2023/12/31 13:33:19;;;;;;;;;;;;;;;8.82;67.34;100146.47;5445032;32;34094;-74
2023/12/31 13:36:21;;;;;;;;;;;;;;;8.38;69.49;100148.87;5461369;32;34652;-73
2023/12/31 13:39:24;;;;;;;;;;;;;;;7.83;71.41;100148.03;5448698;32;35310;-73
2023/12/31 13:42:30;;;;;;;;;;;;;;;7.37;72.05;100148.56;5449992;32;35759;-69
2023/12/31 13:45:32;;;;;;;;;;;;;;;7.93;71.10;100146.84;5460887;32;34873;-72
2023/12/31 13:48:34;;;;;;;;;;;;;;;8.01;71.29;100143.97;5465741;32;34698;-72
2023/12/31 13:51:36;;;;;;;;;;;;;;;8.09;70.59;100140.19;5451861;32;36408;-70
2023/12/31 13:54:38;;;;;;;;;;;;;;;7.28;71.53;100134.03;5449049;32;35305;-72
2023/12/31 13:57:41;;;;;;;;;;;;;;;7.36;72.29;100136.41;5446196;32;34872;-72
2023/12/31 14:00:50;;;;;;;;;;;;;;;7.82;71.07;100135.84;5460865;32;35311;-71
2023/12/31 14:03:52;;;;;;;;;;;;;;;7.43;71.80;100130.09;5465404;32;35068;-73
2023/12/31 14:06:54;;;;;;;;;;;;;;;7.90;69.69;100131.22;5460340;32;35488;-71
2023/12/31 14:09:56;;;;;;;;;;;;;;;6.65;74.55;100130.56;5464991;32;35022;-69
2023/12/31 14:12:58;;;;;;;;;;;;;;;8.23;69.62;100133.62;5460457;32;35646;-74
2023/12/31 14:16:01;;;;;;;;;;;;;;;6.66;72.72;100132.28;5465411;32;34439;-73
2023/12/31 14:19:03;;;;;;;;;;;;;;;6.02;77.53;100140.91;5443055;32;35033;-73
2023/12/31 14:22:09;;;;;;;;;;;;;;;6.49;75.21;100137.94;5445948;32;35385;-71
2023/12/31 14:25:11;;;;;;;;;;;;;;;6.39;77.34;100127.81;5445913;32;35023;-72
2023/12/31 14:28:13;;;;;;;;;;;;;;;7.31;72.49;100126.94;5462024;32;34362;-74
2023/12/31 14:31:16;;;;;;;;;;;;;;;6.79;74.53;100119.75;5466911;32;34986;-72
2023/12/31 14:34:18;;;;;;;;;;;;;;;6.38;75.37;100119.13;5448319;32;35024;-71
2023/12/31 14:37:20;;;;;;;;;;;;;;;7.02;73.41;100111.28;5466052;32;35231;-75
2023/12/31 14:40:23;;;;;;;;;;;;;;;6.67;74.74;100101.81;5442898;32;35853;-73
2023/12/31 14:43:25;;;;;;;;;;;;;;;7.33;70.37;100098.97;5447452;32;35282;-71
2023/12/31 14:46:27;;;;;;;;;;;;;;;7.37;71.75;100102.38;5467469;32;35266;-72
2023/12/31 14:49:29;;;;;;;;;;;;;;;6.37;74.78;100106.94;5462146;32;34628;-74
2023/12/31 14:52:31;;;;;;;;;;;;;;;6.06;76.82;100104.28;5463937;32;34719;-70
2023/12/31 14:55:34;;;;;;;;;;;;;;;7.14;73.17;100102.19;5446283;32;35199;-70
2023/12/31 14:58:36;;;;;;;;;;;;;;;6.06;77.33;100106.03;5466654;32;35664;-70
2023/12/31 15:01:38;;;;;;;;;;;;;;;6.84;74.28;100098.72;5463635;32;34127;-70
2023/12/31 15:04:40;;;;;;;;;;;;;;;7.10;71.96;100098.81;5463060;32;34487;-70
2023/12/31 15:07:43;;;;;;;;;;;;;;;5.89;77.70;100101.19;5466596;32;35017;-70
2023/12/31 15:10:45;;;;;;;;;;;;;;;6.91;73.26;100090.66;5444342;32;34938;-70
2023/12/31 15:13:47;;;;;;;;;;;;;;;6.63;75.15;100079.28;5467111;32;34702;-68
2023/12/31 15:16:52;;;;;;;;;;;;;;;6.15;76.00;100084.91;5445691;32;34977;-71
2023/12/31 15:19:54;;;;;;;;;;;;;;;6.83;72.20;100084.81;5464889;32;34337;-69
2023/12/31 15:22:57;;;;;;;;;;;;;;;6.48;75.09;100089.25;5464503;32;35135;-72
2023/12/31 15:26:00;;;;;;;;;;;;;;;5.38;79.30;100071.09;5462433;32;35145;-73
2023/12/31 15:29:02;;;;;;;;;;;;;;;6.91;73.96;100072.38;5466559;32;34844;-72
2023/12/31 15:32:05;;;;;;;;;;;;;;;6.83;71.80;100081.31;5461495;32;35361;-69
2023/12/31 15:35:08;;;;;;;;;;;;;;;6.18;76.69;100071.78;5446107;32;34946;-70
2023/12/31 15:38:12;;;;;;;;;;;;;;;7.06;74.54;100074.53;5459843;32;34564;-69
2023/12/31 15:41:16;;;;;;;;;;;;;;;6.86;73.16;100076.88;5464388;32;34739;-73
2023/12/31 15:44:18;;;;;;;;;;;;;;;5.84;76.69;100070.00;5463604;32;35371;-71
2023/12/31 15:47:20;;;;;;;;;;;;;;;5.98;77.13;100078.34;5462023;32;35678;-69
2023/12/31 15:50:23;;;;;;;;;;;;;;;7.11;72.87;100065.72;5465780;32;34667;-70
2023/12/31 15:53:25;;;;;;;;;;;;;;;5.62;78.40;100067.06;5437859;32;34485;-73